Shady Nook, Indiana
Current Conditions -  °F | °C
As of 12:55 PM on Saturday 25 Oct 2014 (Local Time) from KANQ Reporting Station
Overcast Overcast  
Wind Chill: 61°   Ceiling: 1700
Heat Index: 61°   Visibility: 10mi
Dew Point: 52°   Wind: 12mph
Humidity: 72%   Direction: 300°WNW
Pressure: 29.89"   Gusts: NA
Location:  41.5677°N, 85.3125°W
Report Text: KANQ 251655Z AUTO 30010KT 10SM OVC017 16/11 A2989 RMK
Loading
Personal Weather Stations






























Interactive Weather Map
Tropical Storm Tracking
New forecast layout! Learn more

10-Day Weather Forecast

Advertisements
Track Severe Weather on mobile